createdAt,value
2022-10-14T00:03:58.549Z,225
2022-10-14T00:08:59.232Z,225
2022-10-14T00:13:59.103Z,225
2022-10-14T00:18:58.704Z,225
2022-10-14T00:23:58.484Z,225
2022-10-14T00:28:59.395Z,225
2022-10-14T00:33:58.998Z,225
2022-10-14T00:38:59.436Z,225
2022-10-14T00:43:58.842Z,225
2022-10-14T00:48:59.411Z,225
2022-10-14T00:53:58.966Z,225
2022-10-14T00:58:58.484Z,202
2022-10-14T01:03:59.099Z,202
2022-10-14T01:08:58.917Z,202
2022-10-14T01:13:58.954Z,202
2022-10-14T01:18:58.755Z,202
2022-10-14T01:23:58.489Z,202
2022-10-14T01:28:59.650Z,225
2022-10-14T01:33:59.241Z,225
2022-10-14T01:38:58.589Z,202
2022-10-14T01:43:59.178Z,202
2022-10-14T01:48:58.751Z,248
2022-10-14T01:53:58.487Z,248
2022-10-14T01:58:59.439Z,248
2022-10-14T02:03:59.246Z,248
2022-10-14T02:08:58.999Z,248
2022-10-14T02:13:58.838Z,248
2022-10-14T02:18:59.210Z,225
2022-10-14T02:23:58.831Z,225
2022-10-14T02:28:59.685Z,180
2022-10-14T02:33:59.073Z,180
2022-10-14T02:38:58.728Z,248
2022-10-14T02:43:58.759Z,248
2022-10-14T02:48:58.707Z,248
2022-10-14T02:53:58.692Z,248
2022-10-14T02:58:59.223Z,248
2022-10-14T03:03:58.991Z,248
2022-10-14T03:08:58.901Z,225
2022-10-14T03:13:59.151Z,225
2022-10-14T03:18:58.693Z,270
2022-10-14T03:23:59.375Z,270
2022-10-14T03:28:59.055Z,270
2022-10-14T03:33:58.667Z,270
2022-10-14T03:38:59.040Z,270
2022-10-14T03:43:58.545Z,270
2022-10-14T03:48:59.161Z,270
2022-10-14T03:53:59.257Z,270
2022-10-14T03:58:58.898Z,270
2022-10-14T04:03:58.606Z,270
2022-10-14T04:08:59.127Z,270
2022-10-14T04:13:59.306Z,270
2022-10-14T04:18:58.851Z,270
2022-10-14T07:48:59.375Z,180
2022-10-14T07:53:59.013Z,180
2022-10-14T07:58:59.607Z,202
2022-10-14T08:03:59.168Z,202
2022-10-14T08:08:58.823Z,248
2022-10-14T08:13:59.323Z,248
2022-10-14T08:18:59.054Z,225
2022-10-14T08:23:59.531Z,225
2022-10-14T08:28:59.401Z,90
2022-10-14T08:33:59.068Z,90
2022-10-14T08:38:59.964Z,248
2022-10-14T08:43:58.683Z,248
2022-10-14T08:48:59.284Z,225
2022-10-14T08:53:59.298Z,225
2022-10-14T08:58:59.165Z,202
2022-10-14T09:03:59.652Z,202
2022-10-14T09:08:59.716Z,225
2022-10-14T09:13:59.584Z,225
2022-10-14T09:18:59.179Z,248
2022-10-14T09:23:59.521Z,248
2022-10-14T09:28:59.612Z,248
2022-10-14T09:33:59.712Z,248
2022-10-14T09:39:06.480Z,180
2022-10-14T09:43:59.255Z,180
2022-10-14T09:48:59.724Z,248
2022-10-14T09:53:59.617Z,248
2022-10-14T09:58:59.532Z,180
2022-10-14T10:03:59.874Z,180
2022-10-14T10:08:59.749Z,270
2022-10-14T10:13:59.589Z,270
2022-10-14T10:18:59.120Z,248
2022-10-14T10:23:59.491Z,248
2022-10-14T10:28:59.322Z,180
2022-10-14T10:33:59.287Z,180
2022-10-14T10:38:59.117Z,158
2022-10-14T10:43:58.939Z,158
2022-10-14T10:48:59.662Z,225
2022-10-14T10:53:59.654Z,225
2022-10-14T10:58:59.449Z,248
2022-10-14T11:03:59.297Z,248
2022-10-14T11:08:59.119Z,202
2022-10-14T11:13:59.979Z,202
2022-10-14T11:18:59.813Z,225
2022-10-14T11:23:59.511Z,225
2022-10-14T11:28:59.485Z,180
2022-10-14T11:33:59.499Z,180
2022-10-14T11:38:59.013Z,158
2022-10-14T11:43:59.570Z,158
2022-10-14T11:49:00.046Z,248
2022-10-14T11:53:59.288Z,248
2022-10-14T11:58:59.529Z,202
2022-10-14T12:03:59.727Z,202
2022-10-14T12:08:59.099Z,225
2022-10-14T12:13:59.765Z,225
2022-10-14T12:18:59.253Z,135
2022-10-14T12:23:59.155Z,135
2022-10-14T12:29:03.952Z,158
2022-10-14T12:33:59.571Z,158
2022-10-14T12:38:59.333Z,112
2022-10-14T12:43:59.539Z,112
2022-10-14T12:49:00.310Z,135
2022-10-14T12:53:59.054Z,135
2022-10-14T12:58:59.745Z,158
2022-10-14T13:04:00.039Z,158
2022-10-14T13:08:59.632Z,158
2022-10-14T13:13:59.497Z,158
2022-10-14T13:18:59.132Z,292
2022-10-14T13:23:59.762Z,292
2022-10-14T13:28:59.416Z,248
2022-10-14T13:33:59.169Z,248
2022-10-14T13:39:00.017Z,225
2022-10-14T13:43:59.302Z,225
2022-10-14T13:48:59.135Z,248
2022-10-14T13:53:59.690Z,248
2022-10-14T13:58:59.831Z,248
2022-10-14T14:03:59.618Z,248
2022-10-14T14:08:59.415Z,248
2022-10-14T14:14:01.877Z,248
2022-10-14T14:19:09.986Z,248
2022-10-14T14:23:58.858Z,248
2022-10-14T14:28:59.724Z,112
2022-10-14T14:33:59.669Z,112
2022-10-14T14:38:59.346Z,135
2022-10-14T14:44:26.435Z,135
2022-10-14T14:49:00.112Z,135
2022-10-14T14:53:59.303Z,135
2022-10-14T14:58:59.302Z,135
2022-10-14T15:04:14.848Z,135
2022-10-14T15:09:00.180Z,135
2022-10-14T15:13:59.585Z,135
2022-10-14T15:18:59.725Z,135
2022-10-14T15:23:59.848Z,135
2022-10-14T15:28:59.341Z,135
2022-10-14T15:33:59.510Z,135
2022-10-14T15:38:59.317Z,135
2022-10-14T15:43:59.762Z,135
2022-10-14T15:48:59.691Z,135
2022-10-14T15:54:00.141Z,135
2022-10-14T15:58:59.323Z,135
2022-10-14T16:03:59.809Z,135
2022-10-14T16:08:59.582Z,135
2022-10-14T16:13:59.752Z,135
2022-10-14T16:18:59.350Z,135
2022-10-14T16:23:59.557Z,135
2022-10-14T16:28:59.337Z,135
2022-10-14T16:33:59.971Z,135
2022-10-14T16:38:59.351Z,135
2022-10-14T16:43:59.021Z,135
2022-10-14T16:48:59.346Z,135
2022-10-14T16:53:59.792Z,135
2022-10-14T16:58:59.082Z,135
2022-10-14T17:03:59.536Z,135
2022-10-14T17:08:59.165Z,135
2022-10-14T17:13:59.888Z,135
2022-10-14T17:18:59.700Z,135
2022-10-14T17:23:59.157Z,135
2022-10-14T17:28:59.665Z,135
2022-10-14T17:33:59.467Z,135
2022-10-14T17:38:59.819Z,135
2022-10-14T17:43:59.443Z,135
2022-10-14T17:49:00.035Z,135
2022-10-14T17:53:59.869Z,135
2022-10-14T17:58:59.399Z,135
2022-10-14T18:03:59.176Z,135
2022-10-14T18:08:59.606Z,135
2022-10-14T18:14:00.013Z,135
2022-10-14T18:18:59.614Z,135
2022-10-14T18:23:59.448Z,135
2022-10-14T18:29:00.161Z,135
2022-10-14T18:33:59.554Z,135
2022-10-14T18:38:59.787Z,135
2022-10-14T18:43:59.397Z,135
2022-10-14T18:49:00.117Z,135
2022-10-14T18:53:59.571Z,135
2022-10-14T18:58:59.303Z,112
2022-10-14T19:03:59.917Z,112
2022-10-14T19:08:59.472Z,158
2022-10-14T19:14:00.054Z,158
2022-10-14T19:18:59.758Z,180
2022-10-14T19:23:59.440Z,180
2022-10-14T19:28:59.943Z,135
2022-10-14T19:33:59.809Z,135
2022-10-14T19:38:59.734Z,135
2022-10-14T19:44:00.172Z,135
2022-10-14T19:48:59.725Z,135
2022-10-14T19:53:59.354Z,135
2022-10-14T19:58:59.894Z,135
2022-10-14T20:03:59.800Z,135
2022-10-14T20:08:59.793Z,135
2022-10-14T20:13:59.141Z,135
2022-10-14T20:18:59.574Z,135
2022-10-14T20:24:00.187Z,135
2022-10-14T20:28:59.655Z,135
2022-10-14T20:33:59.141Z,135
2022-10-14T20:38:59.518Z,158
2022-10-14T20:43:59.207Z,158
2022-10-14T20:49:00.012Z,158
2022-10-14T20:54:07.236Z,158
2022-10-14T20:58:59.226Z,135
2022-10-14T21:03:59.378Z,135
2022-10-14T21:08:59.347Z,135
2022-10-14T21:13:59.178Z,135
2022-10-14T21:18:59.404Z,135
2022-10-14T21:23:59.476Z,135
2022-10-14T21:29:00.173Z,112
2022-10-14T21:34:06.682Z,112
2022-10-14T21:38:59.434Z,112
2022-10-14T21:44:00.029Z,112
2022-10-14T21:48:59.839Z,112
2022-10-14T21:53:59.893Z,112
2022-10-14T21:58:59.277Z,112
2022-10-14T22:03:59.390Z,112
2022-10-14T22:09:00.026Z,112
2022-10-14T22:13:59.791Z,112
2022-10-14T22:18:59.538Z,158
2022-10-14T22:24:00.048Z,158
2022-10-14T22:28:59.806Z,135
2022-10-14T22:33:59.392Z,135
2022-10-14T22:38:59.931Z,135
2022-10-14T22:43:59.353Z,135
2022-10-14T22:48:59.906Z,135
2022-10-14T22:54:00.153Z,135
2022-10-14T22:58:59.951Z,135
2022-10-14T23:03:59.499Z,135
2022-10-14T23:08:59.759Z,180
2022-10-14T23:14:07.534Z,180
2022-10-14T23:19:00.151Z,180
2022-10-14T23:23:59.715Z,180
2022-10-14T23:28:59.558Z,180
2022-10-14T23:33:59.523Z,180
2022-10-14T23:39:00.215Z,112
2022-10-14T23:43:59.733Z,112
2022-10-14T23:49:26.320Z,180
2022-10-14T23:53:59.314Z,180
2022-10-14T23:59:00.204Z,158
